Gyor, Hungary
Current Conditions -  °F | °C
As of 3:45 PM on Sunday 25 Jan 2015 (Local Time) from LHPR Reporting Station
Light Snow Light Snow  
Wind Chill: 20°   Ceiling: 1600
Heat Index: 32°   Visibility: 1.5mi
Dew Point: 30°   Wind: 18mph
Humidity: 93%   Direction: 320°NW
Pressure: 30.12"   Gusts: NA
Location:  47.69°N, 17.64°E
Report Text: LHPR 251345Z 32016KT 2500 -SN SCT008 OVC016 00/M01 Q1020
Loading
Personal Weather Stations






























Interactive Weather Map New forecast layout! Learn more

10-Day Weather Forecast

Advertisements
Track Severe Weather on mobile